sensor_id;sensor_type;location;lat;lon;timestamp;P1;durP1;ratioP1;P2;durP2;ratioP2
44214;SDS011;29884;47.450;19.124;2022-08-04T00:01:02;1.20;;;0.60;;
44214;SDS011;29884;47.450;19.124;2022-08-04T00:03:52;1.15;;;0.70;;
44214;SDS011;29884;47.450;19.124;2022-08-04T00:09:16;0.98;;;0.60;;
44214;SDS011;29884;47.450;19.124;2022-08-04T00:11:54;0.80;;;0.60;;
44214;SDS011;29884;47.450;19.124;2022-08-04T00:14:24;1.13;;;0.70;;
44214;SDS011;29884;47.450;19.124;2022-08-04T00:16:51;1.55;;;0.75;;
44214;SDS011;29884;47.450;19.124;2022-08-04T00:19:31;1.15;;;0.70;;
44214;SDS011;29884;47.450;19.124;2022-08-04T00:22:04;1.42;;;0.80;;
44214;SDS011;29884;47.450;19.124;2022-08-04T00:24:33;2.92;;;0.60;;
44214;SDS011;29884;47.450;19.124;2022-08-04T00:27:00;1.33;;;0.73;;
44214;SDS011;29884;47.450;19.124;2022-08-04T00:29:26;1.92;;;0.80;;
44214;SDS011;29884;47.450;19.124;2022-08-04T00:31:53;0.77;;;0.60;;
44214;SDS011;29884;47.450;19.124;2022-08-04T00:34:21;1.00;;;0.60;;
44214;SDS011;29884;47.450;19.124;2022-08-04T00:36:53;1.63;;;0.80;;
44214;SDS011;29884;47.450;19.124;2022-08-04T00:39:19;2.65;;;0.70;;
44214;SDS011;29884;47.450;19.124;2022-08-04T00:44:54;1.35;;;0.80;;
44214;SDS011;29884;47.450;19.124;2022-08-04T00:47:43;1.33;;;0.82;;
44214;SDS011;29884;47.450;19.124;2022-08-04T00:53:03;1.05;;;0.60;;
44214;SDS011;29884;47.450;19.124;2022-08-04T01:01:50;1.10;;;0.80;;
44214;SDS011;29884;47.450;19.124;2022-08-04T01:07:17;1.00;;;0.60;;
44214;SDS011;29884;47.450;19.124;2022-08-04T01:18:05;0.75;;;0.60;;
44214;SDS011;29884;47.450;19.124;2022-08-04T01:20:47;1.27;;;0.60;;
44214;SDS011;29884;47.450;19.124;2022-08-04T01:26:38;2.20;;;0.60;;
44214;SDS011;29884;47.450;19.124;2022-08-04T01:29:13;3.20;;;0.63;;
44214;SDS011;29884;47.450;19.124;2022-08-04T01:34:12;1.33;;;0.57;;
44214;SDS011;29884;47.450;19.124;2022-08-04T01:36:53;2.15;;;0.50;;
44214;SDS011;29884;47.450;19.124;2022-08-04T01:39:26;1.20;;;0.50;;
44214;SDS011;29884;47.450;19.124;2022-08-04T01:42:04;0.95;;;0.60;;
44214;SDS011;29884;47.450;19.124;2022-08-04T01:44:30;1.15;;;0.60;;
44214;SDS011;29884;47.450;19.124;2022-08-04T01:46:59;0.90;;;0.50;;
44214;SDS011;29884;47.450;19.124;2022-08-04T01:49:29;0.95;;;0.60;;
44214;SDS011;29884;47.450;19.124;2022-08-04T01:51:56;1.83;;;0.60;;
44214;SDS011;29884;47.450;19.124;2022-08-04T01:54:23;1.10;;;0.60;;
44214;SDS011;29884;47.450;19.124;2022-08-04T01:56:50;0.90;;;0.50;;
44214;SDS011;29884;47.450;19.124;2022-08-04T01:59:18;1.02;;;0.63;;
44214;SDS011;29884;47.450;19.124;2022-08-04T02:01:45;3.72;;;0.60;;
44214;SDS011;29884;47.450;19.124;2022-08-04T02:04:14;0.70;;;0.50;;
44214;SDS011;29884;47.450;19.124;2022-08-04T02:15:12;0.50;;;0.40;;
44214;SDS011;29884;47.450;19.124;2022-08-04T02:22:46;0.88;;;0.50;;
44214;SDS011;29884;47.450;19.124;2022-08-04T02:25:17;0.70;;;0.57;;
44214;SDS011;29884;47.450;19.124;2022-08-04T02:30:19;0.95;;;0.50;;
44214;SDS011;29884;47.450;19.124;2022-08-04T02:32:47;0.80;;;0.50;;
44214;SDS011;29884;47.450;19.124;2022-08-04T02:35:15;0.70;;;0.55;;
44214;SDS011;29884;47.450;19.124;2022-08-04T02:37:46;0.70;;;0.43;;
44214;SDS011;29884;47.450;19.124;2022-08-04T02:40:14;0.70;;;0.50;;
44214;SDS011;29884;47.450;19.124;2022-08-04T02:42:44;1.50;;;0.50;;
44214;SDS011;29884;47.450;19.124;2022-08-04T02:45:10;1.02;;;0.50;;
44214;SDS011;29884;47.450;19.124;2022-08-04T02:47:37;0.70;;;0.50;;
44214;SDS011;29884;47.450;19.124;2022-08-04T02:50:04;1.00;;;0.50;;
44214;SDS011;29884;47.450;19.124;2022-08-04T02:52:32;1.25;;;0.60;;
44214;SDS011;29884;47.450;19.124;2022-08-04T02:54:59;2.20;;;0.50;;
44214;SDS011;29884;47.450;19.124;2022-08-04T02:57:28;4.78;;;0.75;;
44214;SDS011;29884;47.450;19.124;2022-08-04T03:00:09;4.32;;;0.50;;
44214;SDS011;29884;47.450;19.124;2022-08-04T03:19:27;0.77;;;0.50;;
44214;SDS011;29884;47.450;19.124;2022-08-04T03:27:48;0.75;;;0.50;;
44214;SDS011;29884;47.450;19.124;2022-08-04T03:30:42;1.00;;;0.52;;
44214;SDS011;29884;47.450;19.124;2022-08-04T03:44:57;2.25;;;0.60;;
44214;SDS011;29884;47.450;19.124;2022-08-04T03:55:58;1.00;;;0.60;;
44214;SDS011;29884;47.450;19.124;2022-08-04T04:04:31;0.88;;;0.45;;
44214;SDS011;29884;47.450;19.124;2022-08-04T04:27:01;0.50;;;0.32;;
44214;SDS011;29884;47.450;19.124;2022-08-04T04:45:21;1.42;;;0.40;;
44214;SDS011;29884;47.450;19.124;2022-08-04T04:51:07;2.45;;;0.50;;
44214;SDS011;29884;47.450;19.124;2022-08-04T04:53:37;3.80;;;0.50;;
44214;SDS011;29884;47.450;19.124;2022-08-04T04:56:11;0.77;;;0.45;;
44214;SDS011;29884;47.450;19.124;2022-08-04T04:58:43;4.10;;;0.43;;
44214;SDS011;29884;47.450;19.124;2022-08-04T05:01:36;0.95;;;0.50;;
44214;SDS011;29884;47.450;19.124;2022-08-04T05:07:23;1.85;;;0.45;;
44214;SDS011;29884;47.450;19.124;2022-08-04T05:10:15;3.53;;;0.60;;
44214;SDS011;29884;47.450;19.124;2022-08-04T05:15:57;2.40;;;0.50;;
44214;SDS011;29884;47.450;19.124;2022-08-04T05:18:28;1.15;;;0.40;;
44214;SDS011;29884;47.450;19.124;2022-08-04T05:21:04;0.98;;;0.55;;
44214;SDS011;29884;47.450;19.124;2022-08-04T05:23:33;1.15;;;0.30;;
44214;SDS011;29884;47.450;19.124;2022-08-04T05:26:09;1.45;;;0.50;;
44214;SDS011;29884;47.450;19.124;2022-08-04T05:28:40;1.27;;;0.50;;
44214;SDS011;29884;47.450;19.124;2022-08-04T05:31:16;0.90;;;0.40;;
44214;SDS011;29884;47.450;19.124;2022-08-04T05:34:28;1.05;;;0.40;;
44214;SDS011;29884;47.450;19.124;2022-08-04T05:36:41;0.60;;;0.40;;
44214;SDS011;29884;47.450;19.124;2022-08-04T05:39:16;2.35;;;0.40;;
44214;SDS011;29884;47.450;19.124;2022-08-04T05:41:49;1.40;;;0.50;;
44214;SDS011;29884;47.450;19.124;2022-08-04T05:44:16;0.50;;;0.40;;
44214;SDS011;29884;47.450;19.124;2022-08-04T05:46:47;0.90;;;0.40;;
44214;SDS011;29884;47.450;19.124;2022-08-04T05:49:17;0.40;;;0.40;;
44214;SDS011;29884;47.450;19.124;2022-08-04T05:51:44;0.73;;;0.50;;
44214;SDS011;29884;47.450;19.124;2022-08-04T05:54:12;0.70;;;0.40;;
44214;SDS011;29884;47.450;19.124;2022-08-04T05:56:39;2.35;;;0.40;;
44214;SDS011;29884;47.450;19.124;2022-08-04T05:59:06;2.17;;;0.40;;
44214;SDS011;29884;47.450;19.124;2022-08-04T06:01:34;0.98;;;0.40;;
44214;SDS011;29884;47.450;19.124;2022-08-04T06:04:02;1.90;;;0.38;;
44214;SDS011;29884;47.450;19.124;2022-08-04T06:06:29;0.63;;;0.40;;
44214;SDS011;29884;47.450;19.124;2022-08-04T06:08:55;1.27;;;0.30;;
44214;SDS011;29884;47.450;19.124;2022-08-04T06:11:22;0.57;;;0.40;;
44214;SDS011;29884;47.450;19.124;2022-08-04T06:13:57;2.28;;;0.40;;
44214;SDS011;29884;47.450;19.124;2022-08-04T06:16:28;0.80;;;0.30;;
44214;SDS011;29884;47.450;19.124;2022-08-04T06:19:01;0.82;;;0.30;;
44214;SDS011;29884;47.450;19.124;2022-08-04T06:21:30;0.70;;;0.32;;
44214;SDS011;29884;47.450;19.124;2022-08-04T06:23:57;0.75;;;0.30;;
44214;SDS011;29884;47.450;19.124;2022-08-04T06:26:24;0.75;;;0.30;;
44214;SDS011;29884;47.450;19.124;2022-08-04T06:28:51;0.50;;;0.35;;
44214;SDS011;29884;47.450;19.124;2022-08-04T06:31:19;0.52;;;0.30;;
44214;SDS011;29884;47.450;19.124;2022-08-04T06:34:06;0.38;;;0.20;;
44214;SDS011;29884;47.450;19.124;2022-08-04T06:36:32;0.55;;;0.30;;
44214;SDS011;29884;47.450;19.124;2022-08-04T06:39:03;0.35;;;0.30;;
44214;SDS011;29884;47.450;19.124;2022-08-04T06:41:29;0.30;;;0.30;;
44214;SDS011;29884;47.450;19.124;2022-08-04T06:44:04;0.40;;;0.20;;
44214;SDS011;29884;47.450;19.124;2022-08-04T06:46:33;1.45;;;0.30;;
44214;SDS011;29884;47.450;19.124;2022-08-04T06:49:01;1.35;;;0.32;;
44214;SDS011;29884;47.450;19.124;2022-08-04T06:51:28;0.35;;;0.30;;
44214;SDS011;29884;47.450;19.124;2022-08-04T06:53:56;1.75;;;0.20;;
44214;SDS011;29884;47.450;19.124;2022-08-04T06:56:22;0.40;;;0.20;;
44214;SDS011;29884;47.450;19.124;2022-08-04T06:58:49;1.65;;;0.30;;
44214;SDS011;29884;47.450;19.124;2022-08-04T07:01:20;0.40;;;0.30;;
44214;SDS011;29884;47.450;19.124;2022-08-04T07:03:47;2.95;;;0.30;;
44214;SDS011;29884;47.450;19.124;2022-08-04T07:06:13;0.47;;;0.30;;
44214;SDS011;29884;47.450;19.124;2022-08-04T07:08:39;3.03;;;0.30;;
44214;SDS011;29884;47.450;19.124;2022-08-04T07:11:06;0.38;;;0.30;;
44214;SDS011;29884;47.450;19.124;2022-08-04T07:13:33;0.30;;;0.22;;
44214;SDS011;29884;47.450;19.124;2022-08-04T07:15:59;0.40;;;0.20;;
44214;SDS011;29884;47.450;19.124;2022-08-04T07:18:25;1.50;;;0.63;;
44214;SDS011;29884;47.450;19.124;2022-08-04T07:20:51;0.22;;;0.22;;
44214;SDS011;29884;47.450;19.124;2022-08-04T07:23:24;3.33;;;0.30;;
44214;SDS011;29884;47.450;19.124;2022-08-04T07:25:52;0.77;;;0.30;;
44214;SDS011;29884;47.450;19.124;2022-08-04T07:28:20;0.30;;;0.30;;
44214;SDS011;29884;47.450;19.124;2022-08-04T07:30:47;2.50;;;0.30;;
44214;SDS011;29884;47.450;19.124;2022-08-04T07:33:17;1.00;;;0.30;;
44214;SDS011;29884;47.450;19.124;2022-08-04T07:35:48;0.47;;;0.22;;
44214;SDS011;29884;47.450;19.124;2022-08-04T07:38:16;0.52;;;0.30;;
44214;SDS011;29884;47.450;19.124;2022-08-04T07:40:42;0.60;;;0.30;;
44214;SDS011;29884;47.450;19.124;2022-08-04T07:43:08;0.40;;;0.20;;
44214;SDS011;29884;47.450;19.124;2022-08-04T07:45:34;0.55;;;0.20;;
44214;SDS011;29884;47.450;19.124;2022-08-04T07:48:01;0.90;;;0.30;;
44214;SDS011;29884;47.450;19.124;2022-08-04T07:50:29;0.47;;;0.30;;
44214;SDS011;29884;47.450;19.124;2022-08-04T07:52:55;1.70;;;0.30;;
44214;SDS011;29884;47.450;19.124;2022-08-04T07:55:22;0.47;;;0.30;;
44214;SDS011;29884;47.450;19.124;2022-08-04T07:57:49;0.38;;;0.25;;
44214;SDS011;29884;47.450;19.124;2022-08-04T08:00:14;0.73;;;0.38;;
44214;SDS011;29884;47.450;19.124;2022-08-04T08:02:44;0.40;;;0.30;;
44214;SDS011;29884;47.450;19.124;2022-08-04T08:05:14;0.57;;;0.40;;
44214;SDS011;29884;47.450;19.124;2022-08-04T08:07:49;0.30;;;0.30;;
44214;SDS011;29884;47.450;19.124;2022-08-04T08:10:15;0.47;;;0.30;;
44214;SDS011;29884;47.450;19.124;2022-08-04T08:12:42;0.30;;;0.30;;
44214;SDS011;29884;47.450;19.124;2022-08-04T08:15:08;0.55;;;0.30;;
44214;SDS011;29884;47.450;19.124;2022-08-04T08:17:36;0.32;;;0.20;;
44214;SDS011;29884;47.450;19.124;2022-08-04T08:20:03;0.40;;;0.30;;
44214;SDS011;29884;47.450;19.124;2022-08-04T08:22:30;5.60;;;0.30;;
44214;SDS011;29884;47.450;19.124;2022-08-04T08:24:56;1.95;;;0.22;;
44214;SDS011;29884;47.450;19.124;2022-08-04T08:27:22;0.35;;;0.25;;
44214;SDS011;29884;47.450;19.124;2022-08-04T08:29:48;0.45;;;0.30;;
44214;SDS011;29884;47.450;19.124;2022-08-04T08:32:14;0.57;;;0.30;;
44214;SDS011;29884;47.450;19.124;2022-08-04T08:34:40;1.02;;;0.30;;
44214;SDS011;29884;47.450;19.124;2022-08-04T08:37:17;0.30;;;0.30;;
44214;SDS011;29884;47.450;19.124;2022-08-04T08:39:54;0.30;;;0.30;;
44214;SDS011;29884;47.450;19.124;2022-08-04T08:43:04;0.35;;;0.28;;
44214;SDS011;29884;47.450;19.124;2022-08-04T08:54:26;1.08;;;0.30;;
44214;SDS011;29884;47.450;19.124;2022-08-04T09:03:05;0.40;;;0.30;;
44214;SDS011;29884;47.450;19.124;2022-08-04T09:05:42;0.30;;;0.20;;
44214;SDS011;29884;47.450;19.124;2022-08-04T09:11:12;0.50;;;0.30;;
44214;SDS011;29884;47.450;19.124;2022-08-04T09:13:43;0.40;;;0.30;;
44214;SDS011;29884;47.450;19.124;2022-08-04T09:16:18;0.57;;;0.30;;
44214;SDS011;29884;47.450;19.124;2022-08-04T09:19:09;0.50;;;0.20;;
44214;SDS011;29884;47.450;19.124;2022-08-04T09:21:52;0.75;;;0.40;;
44214;SDS011;29884;47.450;19.124;2022-08-04T09:27:00;0.20;;;0.20;;
44214;SDS011;29884;47.450;19.124;2022-08-04T09:40:50;1.80;;;0.40;;
44214;SDS011;29884;47.450;19.124;2022-08-04T09:43:37;0.47;;;0.30;;
44214;SDS011;29884;47.450;19.124;2022-08-04T09:46:46;0.43;;;0.30;;
44214;SDS011;29884;47.450;19.124;2022-08-04T09:49:29;0.30;;;0.25;;
44214;SDS011;29884;47.450;19.124;2022-08-04T09:54:41;0.53;;;0.20;;
44214;SDS011;29884;47.450;19.124;2022-08-04T10:02:15;0.30;;;0.30;;
44214;SDS011;29884;47.450;19.124;2022-08-04T10:04:44;0.77;;;0.30;;
44214;SDS011;29884;47.450;19.124;2022-08-04T10:10:35;0.30;;;0.20;;
44214;SDS011;29884;47.450;19.124;2022-08-04T10:15:49;0.50;;;0.30;;
44214;SDS011;29884;47.450;19.124;2022-08-04T10:21:35;2.35;;;0.28;;
44214;SDS011;29884;47.450;19.124;2022-08-04T10:26:58;0.35;;;0.22;;
44214;SDS011;29884;47.450;19.124;2022-08-04T10:29:45;0.30;;;0.30;;
44214;SDS011;29884;47.450;19.124;2022-08-04T10:40:49;0.28;;;0.20;;
44214;SDS011;29884;47.450;19.124;2022-08-04T10:43:38;0.45;;;0.30;;
44214;SDS011;29884;47.450;19.124;2022-08-04T10:46:11;1.77;;;0.35;;
44214;SDS011;29884;47.450;19.124;2022-08-04T10:53:59;1.02;;;0.30;;
44214;SDS011;29884;47.450;19.124;2022-08-04T10:56:37;0.40;;;0.30;;
44214;SDS011;29884;47.450;19.124;2022-08-04T10:59:38;0.38;;;0.25;;
44214;SDS011;29884;47.450;19.124;2022-08-04T11:07:46;0.60;;;0.30;;
44214;SDS011;29884;47.450;19.124;2022-08-04T11:10:15;0.90;;;0.30;;
44214;SDS011;29884;47.450;19.124;2022-08-04T11:12:46;2.22;;;0.40;;
44214;SDS011;29884;47.450;19.124;2022-08-04T11:15:24;0.30;;;0.30;;
44214;SDS011;29884;47.450;19.124;2022-08-04T11:18:12;0.50;;;0.32;;
44214;SDS011;29884;47.450;19.124;2022-08-04T11:20:55;1.00;;;0.40;;
44214;SDS011;29884;47.450;19.124;2022-08-04T11:23:32;0.60;;;0.30;;
44214;SDS011;29884;47.450;19.124;2022-08-04T11:26:03;0.77;;;0.40;;
44214;SDS011;29884;47.450;19.124;2022-08-04T11:31:31;0.85;;;0.40;;
44214;SDS011;29884;47.450;19.124;2022-08-04T11:37:14;1.73;;;0.32;;
44214;SDS011;29884;47.450;19.124;2022-08-04T11:39:47;1.25;;;0.40;;
44214;SDS011;29884;47.450;19.124;2022-08-04T11:42:26;0.50;;;0.30;;
44214;SDS011;29884;47.450;19.124;2022-08-04T11:45:04;3.20;;;0.40;;
44214;SDS011;29884;47.450;19.124;2022-08-04T11:47:40;0.50;;;0.30;;
44214;SDS011;29884;47.450;19.124;2022-08-04T11:50:20;0.65;;;0.40;;
44214;SDS011;29884;47.450;19.124;2022-08-04T11:52:58;0.70;;;0.40;;
44214;SDS011;29884;47.450;19.124;2022-08-04T11:55:26;0.30;;;0.30;;
44214;SDS011;29884;47.450;19.124;2022-08-04T11:57:53;0.55;;;0.35;;
44214;SDS011;29884;47.450;19.124;2022-08-04T12:00:19;0.50;;;0.40;;
44214;SDS011;29884;47.450;19.124;2022-08-04T12:08:53;0.60;;;0.30;;
44214;SDS011;29884;47.450;19.124;2022-08-04T12:17:26;0.30;;;0.30;;
44214;SDS011;29884;47.450;19.124;2022-08-04T12:19:57;0.22;;;0.22;;
44214;SDS011;29884;47.450;19.124;2022-08-04T12:22:29;0.45;;;0.30;;
44214;SDS011;29884;47.450;19.124;2022-08-04T12:25:00;0.50;;;0.40;;
44214;SDS011;29884;47.450;19.124;2022-08-04T12:27:35;0.70;;;0.40;;
44214;SDS011;29884;47.450;19.124;2022-08-04T12:30:06;0.52;;;0.40;;
44214;SDS011;29884;47.450;19.124;2022-08-04T12:32:37;2.05;;;0.32;;
44214;SDS011;29884;47.450;19.124;2022-08-04T12:35:26;0.50;;;0.40;;
44214;SDS011;29884;47.450;19.124;2022-08-04T12:45:57;0.80;;;0.35;;
44214;SDS011;29884;47.450;19.124;2022-08-04T12:48:27;1.35;;;0.30;;
44214;SDS011;29884;47.450;19.124;2022-08-04T12:50:56;1.05;;;0.40;;
44214;SDS011;29884;47.450;19.124;2022-08-04T12:53:25;0.40;;;0.30;;
44214;SDS011;29884;47.450;19.124;2022-08-04T12:55:55;0.40;;;0.30;;
44214;SDS011;29884;47.450;19.124;2022-08-04T12:58:23;0.75;;;0.40;;
44214;SDS011;29884;47.450;19.124;2022-08-04T13:01:02;0.30;;;0.30;;
44214;SDS011;29884;47.450;19.124;2022-08-04T13:03:53;0.65;;;0.30;;
44214;SDS011;29884;47.450;19.124;2022-08-04T13:06:30;2.67;;;0.40;;
44214;SDS011;29884;47.450;19.124;2022-08-04T13:09:08;2.35;;;0.40;;
44214;SDS011;29884;47.450;19.124;2022-08-04T13:11:42;0.70;;;0.40;;
44214;SDS011;29884;47.450;19.124;2022-08-04T13:14:12;0.40;;;0.32;;
44214;SDS011;29884;47.450;19.124;2022-08-04T13:16:39;1.70;;;0.30;;
44214;SDS011;29884;47.450;19.124;2022-08-04T13:19:06;0.40;;;0.40;;
44214;SDS011;29884;47.450;19.124;2022-08-04T13:21:33;0.60;;;0.40;;
44214;SDS011;29884;47.450;19.124;2022-08-04T13:24:05;1.20;;;0.32;;
44214;SDS011;29884;47.450;19.124;2022-08-04T13:26:35;0.40;;;0.35;;
44214;SDS011;29884;47.450;19.124;2022-08-04T13:29:04;1.30;;;0.50;;
44214;SDS011;29884;47.450;19.124;2022-08-04T13:31:31;0.55;;;0.40;;
44214;SDS011;29884;47.450;19.124;2022-08-04T13:34:07;0.60;;;0.40;;
44214;SDS011;29884;47.450;19.124;2022-08-04T13:36:36;0.60;;;0.30;;
44214;SDS011;29884;47.450;19.124;2022-08-04T13:39:13;0.45;;;0.30;;
44214;SDS011;29884;47.450;19.124;2022-08-04T13:41:43;1.05;;;0.30;;
44214;SDS011;29884;47.450;19.124;2022-08-04T13:44:12;0.77;;;0.43;;
44214;SDS011;29884;47.450;19.124;2022-08-04T13:46:49;1.05;;;0.52;;
44214;SDS011;29884;47.450;19.124;2022-08-04T13:49:19;0.60;;;0.43;;
44214;SDS011;29884;47.450;19.124;2022-08-04T13:51:48;0.40;;;0.40;;
44214;SDS011;29884;47.450;19.124;2022-08-04T13:54:26;0.60;;;0.40;;
44214;SDS011;29884;47.450;19.124;2022-08-04T13:57:05;0.45;;;0.38;;
44214;SDS011;29884;47.450;19.124;2022-08-04T14:02:49;0.50;;;0.30;;
44214;SDS011;29884;47.450;19.124;2022-08-04T14:04:53;1.75;;;0.40;;
44214;SDS011;29884;47.450;19.124;2022-08-04T14:07:21;0.50;;;0.40;;
44214;SDS011;29884;47.450;19.124;2022-08-04T14:09:50;1.00;;;0.40;;
44214;SDS011;29884;47.450;19.124;2022-08-04T14:12:17;1.38;;;0.40;;
44214;SDS011;29884;47.450;19.124;2022-08-04T14:14:44;1.20;;;0.30;;
44214;SDS011;29884;47.450;19.124;2022-08-04T14:17:16;0.90;;;0.40;;
44214;SDS011;29884;47.450;19.124;2022-08-04T14:19:54;0.50;;;0.40;;
44214;SDS011;29884;47.450;19.124;2022-08-04T14:30:06;0.98;;;0.30;;
44214;SDS011;29884;47.450;19.124;2022-08-04T14:35:30;2.42;;;0.40;;
44214;SDS011;29884;47.450;19.124;2022-08-04T14:37:58;1.02;;;0.60;;
44214;SDS011;29884;47.450;19.124;2022-08-04T14:40:27;0.80;;;0.40;;
44214;SDS011;29884;47.450;19.124;2022-08-04T14:43:07;0.40;;;0.32;;
44214;SDS011;29884;47.450;19.124;2022-08-04T14:45:37;0.60;;;0.40;;
44214;SDS011;29884;47.450;19.124;2022-08-04T14:48:10;0.60;;;0.40;;
44214;SDS011;29884;47.450;19.124;2022-08-04T14:50:43;0.50;;;0.40;;
44214;SDS011;29884;47.450;19.124;2022-08-04T14:53:12;1.05;;;0.40;;
44214;SDS011;29884;47.450;19.124;2022-08-04T14:55:50;1.67;;;0.38;;
44214;SDS011;29884;47.450;19.124;2022-08-04T15:00:51;0.47;;;0.40;;
44214;SDS011;29884;47.450;19.124;2022-08-04T15:03:19;0.45;;;0.38;;
44214;SDS011;29884;47.450;19.124;2022-08-04T15:05:46;0.70;;;0.50;;
44214;SDS011;29884;47.450;19.124;2022-08-04T15:08:13;0.70;;;0.40;;
44214;SDS011;29884;47.450;19.124;2022-08-04T15:10:39;3.72;;;0.43;;
44214;SDS011;29884;47.450;19.124;2022-08-04T15:13:07;2.58;;;0.50;;
44214;SDS011;29884;47.450;19.124;2022-08-04T15:15:33;1.42;;;0.40;;
44214;SDS011;29884;47.450;19.124;2022-08-04T15:17:59;0.43;;;0.40;;
44214;SDS011;29884;47.450;19.124;2022-08-04T15:20:28;0.68;;;0.35;;
44214;SDS011;29884;47.450;19.124;2022-08-04T15:22:56;0.40;;;0.40;;
44214;SDS011;29884;47.450;19.124;2022-08-04T15:25:21;0.50;;;0.40;;
44214;SDS011;29884;47.450;19.124;2022-08-04T15:27:47;0.77;;;0.40;;
44214;SDS011;29884;47.450;19.124;2022-08-04T15:30:15;0.40;;;0.40;;
44214;SDS011;29884;47.450;19.124;2022-08-04T15:32:45;0.65;;;0.40;;
44214;SDS011;29884;47.450;19.124;2022-08-04T15:35:17;2.42;;;0.40;;
44214;SDS011;29884;47.450;19.124;2022-08-04T15:37:57;0.63;;;0.50;;
44214;SDS011;29884;47.450;19.124;2022-08-04T15:40:42;0.50;;;0.40;;
44214;SDS011;29884;47.450;19.124;2022-08-04T15:46:02;1.50;;;0.32;;
44214;SDS011;29884;47.450;19.124;2022-08-04T15:48:29;0.40;;;0.38;;
44214;SDS011;29884;47.450;19.124;2022-08-04T15:53:22;0.40;;;0.40;;
44214;SDS011;29884;47.450;19.124;2022-08-04T15:55:52;0.88;;;0.40;;
44214;SDS011;29884;47.450;19.124;2022-08-04T15:58:18;1.42;;;0.32;;
44214;SDS011;29884;47.450;19.124;2022-08-04T16:08:57;0.50;;;0.40;;
44214;SDS011;29884;47.450;19.124;2022-08-04T16:19:10;2.38;;;0.40;;
44214;SDS011;29884;47.450;19.124;2022-08-04T16:21:47;0.40;;;0.40;;
44214;SDS011;29884;47.450;19.124;2022-08-04T16:24:16;1.23;;;0.40;;
44214;SDS011;29884;47.450;19.124;2022-08-04T16:26:45;0.40;;;0.40;;
44214;SDS011;29884;47.450;19.124;2022-08-04T16:37:12;3.53;;;0.47;;
44214;SDS011;29884;47.450;19.124;2022-08-04T16:39:39;2.35;;;0.40;;
44214;SDS011;29884;47.450;19.124;2022-08-04T16:45:00;1.08;;;0.40;;
44214;SDS011;29884;47.450;19.124;2022-08-04T16:47:59;0.73;;;0.40;;
44214;SDS011;29884;47.450;19.124;2022-08-04T16:50:18;0.50;;;0.40;;
44214;SDS011;29884;47.450;19.124;2022-08-04T16:52:49;1.38;;;0.50;;
44214;SDS011;29884;47.450;19.124;2022-08-04T16:55:17;0.95;;;0.40;;
44214;SDS011;29884;47.450;19.124;2022-08-04T16:57:47;0.73;;;0.40;;
44214;SDS011;29884;47.450;19.124;2022-08-04T17:00:14;1.05;;;0.40;;
44214;SDS011;29884;47.450;19.124;2022-08-04T17:02:41;0.85;;;0.40;;
44214;SDS011;29884;47.450;19.124;2022-08-04T17:05:21;0.63;;;0.40;;
44214;SDS011;29884;47.450;19.124;2022-08-04T17:07:53;0.57;;;0.40;;
44214;SDS011;29884;47.450;19.124;2022-08-04T17:10:32;0.75;;;0.40;;
44214;SDS011;29884;47.450;19.124;2022-08-04T17:13:02;0.60;;;0.40;;
44214;SDS011;29884;47.450;19.124;2022-08-04T17:15:54;1.15;;;0.40;;
44214;SDS011;29884;47.450;19.124;2022-08-04T17:18:29;0.65;;;0.50;;
44214;SDS011;29884;47.450;19.124;2022-08-04T17:20:58;2.97;;;0.60;;
44214;SDS011;29884;47.450;19.124;2022-08-04T17:26:07;0.60;;;0.40;;
44214;SDS011;29884;47.450;19.124;2022-08-04T17:28:41;0.60;;;0.40;;
44214;SDS011;29884;47.450;19.124;2022-08-04T17:31:10;2.10;;;0.50;;
44214;SDS011;29884;47.450;19.124;2022-08-04T17:33:36;1.20;;;0.50;;
44214;SDS011;29884;47.450;19.124;2022-08-04T17:36:04;1.40;;;0.40;;
44214;SDS011;29884;47.450;19.124;2022-08-04T17:38:36;0.75;;;0.45;;
44214;SDS011;29884;47.450;19.124;2022-08-04T17:41:05;0.70;;;0.50;;
44214;SDS011;29884;47.450;19.124;2022-08-04T17:43:39;0.93;;;0.50;;
44214;SDS011;29884;47.450;19.124;2022-08-04T17:46:19;0.55;;;0.40;;
44214;SDS011;29884;47.450;19.124;2022-08-04T17:49:09;1.13;;;0.60;;
44214;SDS011;29884;47.450;19.124;2022-08-04T17:54:07;1.48;;;0.40;;
44214;SDS011;29884;47.450;19.124;2022-08-04T18:01:44;2.55;;;0.40;;
44214;SDS011;29884;47.450;19.124;2022-08-04T18:07:08;1.42;;;0.40;;
44214;SDS011;29884;47.450;19.124;2022-08-04T18:12:09;2.90;;;0.47;;
44214;SDS011;29884;47.450;19.124;2022-08-04T18:17:05;2.55;;;0.40;;
44214;SDS011;29884;47.450;19.124;2022-08-04T18:19:32;2.65;;;0.50;;
44214;SDS011;29884;47.450;19.124;2022-08-04T18:21:58;2.13;;;0.60;;
44214;SDS011;29884;47.450;19.124;2022-08-04T18:24:25;0.80;;;0.50;;
44214;SDS011;29884;47.450;19.124;2022-08-04T18:26:55;0.93;;;0.60;;
44214;SDS011;29884;47.450;19.124;2022-08-04T18:29:21;1.48;;;0.70;;
44214;SDS011;29884;47.450;19.124;2022-08-04T18:31:46;1.15;;;0.70;;
44214;SDS011;29884;47.450;19.124;2022-08-04T18:34:12;2.08;;;0.80;;
44214;SDS011;29884;47.450;19.124;2022-08-04T18:36:38;3.05;;;0.60;;
44214;SDS011;29884;47.450;19.124;2022-08-04T18:39:04;3.55;;;0.90;;
44214;SDS011;29884;47.450;19.124;2022-08-04T18:41:30;3.75;;;1.00;;
44214;SDS011;29884;47.450;19.124;2022-08-04T18:43:57;1.65;;;0.80;;
44214;SDS011;29884;47.450;19.124;2022-08-04T18:46:23;1.85;;;1.20;;
44214;SDS011;29884;47.450;19.124;2022-08-04T18:48:49;2.58;;;1.23;;
44214;SDS011;29884;47.450;19.124;2022-08-04T18:51:15;3.28;;;1.00;;
44214;SDS011;29884;47.450;19.124;2022-08-04T18:53:42;2.28;;;0.88;;
44214;SDS011;29884;47.450;19.124;2022-08-04T18:56:08;3.08;;;1.20;;
44214;SDS011;29884;47.450;19.124;2022-08-04T18:58:34;3.22;;;1.17;;
44214;SDS011;29884;47.450;19.124;2022-08-04T19:01:00;2.72;;;1.40;;
44214;SDS011;29884;47.450;19.124;2022-08-04T19:03:26;2.30;;;1.35;;
44214;SDS011;29884;47.450;19.124;2022-08-04T19:05:52;2.95;;;1.30;;
44214;SDS011;29884;47.450;19.124;2022-08-04T19:08:18;1.92;;;1.20;;
44214;SDS011;29884;47.450;19.124;2022-08-04T19:10:44;2.70;;;1.10;;
44214;SDS011;29884;47.450;19.124;2022-08-04T19:13:10;1.90;;;1.25;;
44214;SDS011;29884;47.450;19.124;2022-08-04T19:15:35;3.83;;;1.08;;
44214;SDS011;29884;47.450;19.124;2022-08-04T19:18:01;1.20;;;0.80;;
44214;SDS011;29884;47.450;19.124;2022-08-04T19:20:27;4.00;;;1.08;;
44214;SDS011;29884;47.450;19.124;2022-08-04T19:22:54;3.38;;;0.90;;
44214;SDS011;29884;47.450;19.124;2022-08-04T19:25:20;1.85;;;0.73;;
44214;SDS011;29884;47.450;19.124;2022-08-04T19:27:46;1.88;;;0.90;;
44214;SDS011;29884;47.450;19.124;2022-08-04T19:30:11;2.55;;;0.90;;
44214;SDS011;29884;47.450;19.124;2022-08-04T19:32:37;1.20;;;0.82;;
44214;SDS011;29884;47.450;19.124;2022-08-04T19:35:03;1.98;;;0.90;;
44214;SDS011;29884;47.450;19.124;2022-08-04T19:37:29;1.38;;;0.70;;
44214;SDS011;29884;47.450;19.124;2022-08-04T19:39:56;1.10;;;0.80;;
44214;SDS011;29884;47.450;19.124;2022-08-04T19:42:21;1.63;;;0.63;;
44214;SDS011;29884;47.450;19.124;2022-08-04T19:44:47;0.98;;;0.50;;
44214;SDS011;29884;47.450;19.124;2022-08-04T19:47:13;3.65;;;0.60;;
44214;SDS011;29884;47.450;19.124;2022-08-04T19:49:39;4.68;;;0.70;;
44214;SDS011;29884;47.450;19.124;2022-08-04T19:52:05;0.98;;;0.60;;
44214;SDS011;29884;47.450;19.124;2022-08-04T19:54:31;1.00;;;0.77;;
44214;SDS011;29884;47.450;19.124;2022-08-04T19:56:57;2.20;;;0.70;;
44214;SDS011;29884;47.450;19.124;2022-08-04T19:59:23;28.10;;;1.00;;
44214;SDS011;29884;47.450;19.124;2022-08-04T20:01:49;15.70;;;0.90;;